sensor_id;sensor_type;location;lat;lon;timestamp;temperature;humidity
10245;DHT22;5167;52.164;10.530;2022-11-15T00:01:47;8.80;51.00
10245;DHT22;5167;52.164;10.530;2022-11-15T00:04:13;8.70;51.20
10245;DHT22;5167;52.164;10.530;2022-11-15T00:06:38;8.70;51.00
10245;DHT22;5167;52.164;10.530;2022-11-15T00:09:04;8.70;51.20
10245;DHT22;5167;52.164;10.530;2022-11-15T00:11:29;8.70;51.60
10245;DHT22;5167;52.164;10.530;2022-11-15T00:13:56;8.70;51.70
10245;DHT22;5167;52.164;10.530;2022-11-15T00:16:22;8.60;51.80
10245;DHT22;5167;52.164;10.530;2022-11-15T00:18:48;8.60;52.30
10245;DHT22;5167;52.164;10.530;2022-11-15T00:21:14;8.60;52.10
10245;DHT22;5167;52.164;10.530;2022-11-15T00:23:40;8.60;52.60
10245;DHT22;5167;52.164;10.530;2022-11-15T00:26:06;8.60;52.80
10245;DHT22;5167;52.164;10.530;2022-11-15T00:28:32;8.60;53.10
10245;DHT22;5167;52.164;10.530;2022-11-15T00:31:05;8.60;53.40
10245;DHT22;5167;52.164;10.530;2022-11-15T00:33:31;8.60;53.60
10245;DHT22;5167;52.164;10.530;2022-11-15T00:36:02;8.70;53.80
10245;DHT22;5167;52.164;10.530;2022-11-15T00:38:32;8.70;54.20
10245;DHT22;5167;52.164;10.530;2022-11-15T00:40:58;8.70;54.00
10245;DHT22;5167;52.164;10.530;2022-11-15T00:43:23;8.70;53.60
10245;DHT22;5167;52.164;10.530;2022-11-15T00:45:49;8.60;53.50
10245;DHT22;5167;52.164;10.530;2022-11-15T00:48:14;8.60;52.70
10245;DHT22;5167;52.164;10.530;2022-11-15T00:50:40;8.50;53.40
10245;DHT22;5167;52.164;10.530;2022-11-15T00:53:05;8.50;53.00
10245;DHT22;5167;52.164;10.530;2022-11-15T00:55:31;8.50;53.40
10245;DHT22;5167;52.164;10.530;2022-11-15T00:57:56;8.50;53.50
10245;DHT22;5167;52.164;10.530;2022-11-15T01:00:22;8.50;53.40
10245;DHT22;5167;52.164;10.530;2022-11-15T01:02:48;8.50;52.80
10245;DHT22;5167;52.164;10.530;2022-11-15T01:05:13;8.50;52.90
10245;DHT22;5167;52.164;10.530;2022-11-15T01:07:39;8.50;52.80
10245;DHT22;5167;52.164;10.530;2022-11-15T01:10:05;8.60;53.40
10245;DHT22;5167;52.164;10.530;2022-11-15T01:12:30;8.60;53.30
10245;DHT22;5167;52.164;10.530;2022-11-15T01:14:57;8.60;53.10
10245;DHT22;5167;52.164;10.530;2022-11-15T01:17:22;8.50;52.80
10245;DHT22;5167;52.164;10.530;2022-11-15T01:19:48;8.60;52.80
10245;DHT22;5167;52.164;10.530;2022-11-15T01:22:13;8.60;52.90
10245;DHT22;5167;52.164;10.530;2022-11-15T01:24:39;8.60;52.70
10245;DHT22;5167;52.164;10.530;2022-11-15T01:27:04;8.60;52.40
10245;DHT22;5167;52.164;10.530;2022-11-15T01:29:30;8.60;52.30
10245;DHT22;5167;52.164;10.530;2022-11-15T01:31:55;8.60;52.10
10245;DHT22;5167;52.164;10.530;2022-11-15T01:34:21;8.60;52.40
10245;DHT22;5167;52.164;10.530;2022-11-15T01:36:46;8.50;52.20
10245;DHT22;5167;52.164;10.530;2022-11-15T01:39:12;8.50;52.60
10245;DHT22;5167;52.164;10.530;2022-11-15T01:41:37;8.60;52.50
10245;DHT22;5167;52.164;10.530;2022-11-15T01:46:58;8.50;53.30
10245;DHT22;5167;52.164;10.530;2022-11-15T01:49:24;8.60;53.50
10245;DHT22;5167;52.164;10.530;2022-11-15T01:51:51;8.60;53.90
10245;DHT22;5167;52.164;10.530;2022-11-15T01:54:19;8.50;54.60
10245;DHT22;5167;52.164;10.530;2022-11-15T01:56:53;8.70;54.70
10245;DHT22;5167;52.164;10.530;2022-11-15T01:59:19;8.60;55.00
10245;DHT22;5167;52.164;10.530;2022-11-15T02:01:45;8.60;55.10
10245;DHT22;5167;52.164;10.530;2022-11-15T02:04:17;8.60;55.50
10245;DHT22;5167;52.164;10.530;2022-11-15T02:06:45;8.70;55.60
10245;DHT22;5167;52.164;10.530;2022-11-15T02:09:12;8.70;56.30
10245;DHT22;5167;52.164;10.530;2022-11-15T02:11:38;8.60;56.60
10245;DHT22;5167;52.164;10.530;2022-11-15T02:14:04;8.70;56.80
10245;DHT22;5167;52.164;10.530;2022-11-15T02:25:03;8.70;55.70
10245;DHT22;5167;52.164;10.530;2022-11-15T02:36:01;8.60;54.70
10245;DHT22;5167;52.164;10.530;2022-11-15T02:38:47;8.60;53.90
10245;DHT22;5167;52.164;10.530;2022-11-15T02:46:58;8.50;53.50
10245;DHT22;5167;52.164;10.530;2022-11-15T02:49:45;8.40;52.80
10245;DHT22;5167;52.164;10.530;2022-11-15T02:52:18;8.40;53.40
10245;DHT22;5167;52.164;10.530;2022-11-15T02:54:54;8.30;53.30
10245;DHT22;5167;52.164;10.530;2022-11-15T02:57:36;8.30;54.00
10245;DHT22;5167;52.164;10.530;2022-11-15T03:00:15;8.40;53.90
10245;DHT22;5167;52.164;10.530;2022-11-15T03:05:30;8.30;53.40
10245;DHT22;5167;52.164;10.530;2022-11-15T03:08:15;8.30;53.60
10245;DHT22;5167;52.164;10.530;2022-11-15T03:11:03;8.30;53.90
10245;DHT22;5167;52.164;10.530;2022-11-15T03:13:33;8.20;53.90
10245;DHT22;5167;52.164;10.530;2022-11-15T03:18:33;8.20;54.70
10245;DHT22;5167;52.164;10.530;2022-11-15T03:21:03;8.20;55.00
10245;DHT22;5167;52.164;10.530;2022-11-15T03:23:31;8.20;54.80
10245;DHT22;5167;52.164;10.530;2022-11-15T03:25:58;8.20;55.20
10245;DHT22;5167;52.164;10.530;2022-11-15T03:28:30;8.30;55.40
10245;DHT22;5167;52.164;10.530;2022-11-15T03:31:00;8.20;55.30
10245;DHT22;5167;52.164;10.530;2022-11-15T03:33:27;8.20;55.10
10245;DHT22;5167;52.164;10.530;2022-11-15T03:35:54;8.20;55.40
10245;DHT22;5167;52.164;10.530;2022-11-15T03:38:24;8.20;55.50
10245;DHT22;5167;52.164;10.530;2022-11-15T03:40:59;8.20;55.80
10245;DHT22;5167;52.164;10.530;2022-11-15T03:43:47;8.10;57.30
10245;DHT22;5167;52.164;10.530;2022-11-15T03:46:23;8.20;58.10
10245;DHT22;5167;52.164;10.530;2022-11-15T03:48:54;8.10;57.80
10245;DHT22;5167;52.164;10.530;2022-11-15T03:51:22;8.20;59.30
10245;DHT22;5167;52.164;10.530;2022-11-15T03:53:47;8.20;60.30
10245;DHT22;5167;52.164;10.530;2022-11-15T03:56:13;8.20;61.40
10245;DHT22;5167;52.164;10.530;2022-11-15T03:58:38;8.20;61.90
10245;DHT22;5167;52.164;10.530;2022-11-15T04:01:04;8.30;62.00
10245;DHT22;5167;52.164;10.530;2022-11-15T04:03:29;8.30;61.70
10245;DHT22;5167;52.164;10.530;2022-11-15T04:05:55;8.40;61.70
10245;DHT22;5167;52.164;10.530;2022-11-15T04:08:20;8.40;61.60
10245;DHT22;5167;52.164;10.530;2022-11-15T04:10:48;8.40;61.80
10245;DHT22;5167;52.164;10.530;2022-11-15T04:13:14;8.40;61.90
10245;DHT22;5167;52.164;10.530;2022-11-15T04:15:39;8.40;61.80
10245;DHT22;5167;52.164;10.530;2022-11-15T04:18:05;8.50;62.20
10245;DHT22;5167;52.164;10.530;2022-11-15T04:20:31;8.50;62.40
10245;DHT22;5167;52.164;10.530;2022-11-15T04:23:16;8.50;62.30
10245;DHT22;5167;52.164;10.530;2022-11-15T04:26:03;8.50;62.40
10245;DHT22;5167;52.164;10.530;2022-11-15T04:28:29;8.60;62.80
10245;DHT22;5167;52.164;10.530;2022-11-15T04:30:54;8.50;62.90
10245;DHT22;5167;52.164;10.530;2022-11-15T04:33:21;8.60;62.70
10245;DHT22;5167;52.164;10.530;2022-11-15T04:35:46;8.60;62.80
10245;DHT22;5167;52.164;10.530;2022-11-15T04:38:32;8.60;63.00
10245;DHT22;5167;52.164;10.530;2022-11-15T04:40:58;8.60;64.00
10245;DHT22;5167;52.164;10.530;2022-11-15T04:43:23;8.70;63.60
10245;DHT22;5167;52.164;10.530;2022-11-15T04:45:49;8.70;63.70
10245;DHT22;5167;52.164;10.530;2022-11-15T04:48:14;8.70;63.90
10245;DHT22;5167;52.164;10.530;2022-11-15T04:50:40;8.80;64.10
10245;DHT22;5167;52.164;10.530;2022-11-15T04:53:05;8.80;64.70
10245;DHT22;5167;52.164;10.530;2022-11-15T04:55:31;8.90;65.10
10245;DHT22;5167;52.164;10.530;2022-11-15T04:57:58;8.90;64.70
10245;DHT22;5167;52.164;10.530;2022-11-15T05:00:25;8.80;64.40
10245;DHT22;5167;52.164;10.530;2022-11-15T05:02:51;8.90;64.50
10245;DHT22;5167;52.164;10.530;2022-11-15T05:05:35;8.90;64.00
10245;DHT22;5167;52.164;10.530;2022-11-15T05:08:01;9.00;64.10
10245;DHT22;5167;52.164;10.530;2022-11-15T05:10:26;9.00;64.20
10245;DHT22;5167;52.164;10.530;2022-11-15T05:12:52;9.10;64.40
10245;DHT22;5167;52.164;10.530;2022-11-15T05:15:17;9.00;63.80
10245;DHT22;5167;52.164;10.530;2022-11-15T05:17:43;9.10;63.70
10245;DHT22;5167;52.164;10.530;2022-11-15T05:20:09;9.10;63.90
10245;DHT22;5167;52.164;10.530;2022-11-15T05:22:35;9.10;63.90
10245;DHT22;5167;52.164;10.530;2022-11-15T05:25:00;9.00;63.30
10245;DHT22;5167;52.164;10.530;2022-11-15T05:27:26;9.10;63.90
10245;DHT22;5167;52.164;10.530;2022-11-15T05:29:51;9.10;63.90
10245;DHT22;5167;52.164;10.530;2022-11-15T05:32:17;9.10;63.10
10245;DHT22;5167;52.164;10.530;2022-11-15T05:34:43;9.10;62.70
10245;DHT22;5167;52.164;10.530;2022-11-15T05:37:09;9.10;62.50
10245;DHT22;5167;52.164;10.530;2022-11-15T05:39:35;9.10;62.00
10245;DHT22;5167;52.164;10.530;2022-11-15T05:42:06;9.10;61.20
10245;DHT22;5167;52.164;10.530;2022-11-15T05:44:32;9.40;60.90
10245;DHT22;5167;52.164;10.530;2022-11-15T05:46:59;9.10;59.60
10245;DHT22;5167;52.164;10.530;2022-11-15T05:49:27;9.00;59.30
10245;DHT22;5167;52.164;10.530;2022-11-15T05:51:55;9.00;59.40
10245;DHT22;5167;52.164;10.530;2022-11-15T05:54:23;8.90;60.00
10245;DHT22;5167;52.164;10.530;2022-11-15T05:56:50;8.90;59.80
10245;DHT22;5167;52.164;10.530;2022-11-15T05:59:16;8.80;59.80
10245;DHT22;5167;52.164;10.530;2022-11-15T06:01:42;8.80;60.40
10245;DHT22;5167;52.164;10.530;2022-11-15T06:04:08;8.70;60.60
10245;DHT22;5167;52.164;10.530;2022-11-15T06:06:33;8.70;60.90
10245;DHT22;5167;52.164;10.530;2022-11-15T06:08:59;8.70;61.30
10245;DHT22;5167;52.164;10.530;2022-11-15T06:11:24;8.70;61.40
10245;DHT22;5167;52.164;10.530;2022-11-15T06:13:50;8.60;62.00
10245;DHT22;5167;52.164;10.530;2022-11-15T06:16:15;8.70;61.80
10245;DHT22;5167;52.164;10.530;2022-11-15T06:18:41;8.70;62.10
10245;DHT22;5167;52.164;10.530;2022-11-15T06:21:06;8.60;61.90
10245;DHT22;5167;52.164;10.530;2022-11-15T06:23:33;8.60;62.10
10245;DHT22;5167;52.164;10.530;2022-11-15T06:25:59;8.60;62.00
10245;DHT22;5167;52.164;10.530;2022-11-15T06:28:28;8.70;62.80
10245;DHT22;5167;52.164;10.530;2022-11-15T06:30:53;8.60;63.20
10245;DHT22;5167;52.164;10.530;2022-11-15T06:33:19;8.60;63.30
10245;DHT22;5167;52.164;10.530;2022-11-15T06:35:44;8.60;63.10
10245;DHT22;5167;52.164;10.530;2022-11-15T06:38:10;8.60;63.00
10245;DHT22;5167;52.164;10.530;2022-11-15T06:40:37;8.60;63.10
10245;DHT22;5167;52.164;10.530;2022-11-15T06:43:04;8.60;63.00
10245;DHT22;5167;52.164;10.530;2022-11-15T06:45:30;8.60;62.90
10245;DHT22;5167;52.164;10.530;2022-11-15T06:47:55;8.50;62.60
10245;DHT22;5167;52.164;10.530;2022-11-15T06:50:21;8.50;62.60
10245;DHT22;5167;52.164;10.530;2022-11-15T06:52:47;8.50;62.10
10245;DHT22;5167;52.164;10.530;2022-11-15T06:55:12;8.50;62.60
10245;DHT22;5167;52.164;10.530;2022-11-15T06:57:46;8.50;63.20
10245;DHT22;5167;52.164;10.530;2022-11-15T07:00:12;8.50;62.40
10245;DHT22;5167;52.164;10.530;2022-11-15T07:02:38;8.50;62.70
10245;DHT22;5167;52.164;10.530;2022-11-15T07:05:03;8.40;63.00
10245;DHT22;5167;52.164;10.530;2022-11-15T07:07:29;8.40;62.90
10245;DHT22;5167;52.164;10.530;2022-11-15T07:09:54;8.50;63.40
10245;DHT22;5167;52.164;10.530;2022-11-15T07:12:20;8.50;63.10
10245;DHT22;5167;52.164;10.530;2022-11-15T07:14:46;8.40;62.90
10245;DHT22;5167;52.164;10.530;2022-11-15T07:17:11;8.60;62.80
10245;DHT22;5167;52.164;10.530;2022-11-15T07:19:37;8.60;62.90
10245;DHT22;5167;52.164;10.530;2022-11-15T07:22:02;8.60;63.50
10245;DHT22;5167;52.164;10.530;2022-11-15T07:24:28;8.60;63.50
10245;DHT22;5167;52.164;10.530;2022-11-15T07:26:53;8.60;64.20
10245;DHT22;5167;52.164;10.530;2022-11-15T07:29:18;8.60;64.40
10245;DHT22;5167;52.164;10.530;2022-11-15T07:31:44;8.60;64.00
10245;DHT22;5167;52.164;10.530;2022-11-15T07:34:09;8.70;64.30
10245;DHT22;5167;52.164;10.530;2022-11-15T07:36:35;8.70;64.50
10245;DHT22;5167;52.164;10.530;2022-11-15T07:39:01;8.60;64.40
10245;DHT22;5167;52.164;10.530;2022-11-15T07:41:26;8.70;64.20
10245;DHT22;5167;52.164;10.530;2022-11-15T07:43:52;8.60;64.40
10245;DHT22;5167;52.164;10.530;2022-11-15T07:46:18;8.60;64.60
10245;DHT22;5167;52.164;10.530;2022-11-15T07:48:43;8.60;65.10
10245;DHT22;5167;52.164;10.530;2022-11-15T07:51:12;8.60;64.90
10245;DHT22;5167;52.164;10.530;2022-11-15T07:53:38;8.70;65.20
10245;DHT22;5167;52.164;10.530;2022-11-15T07:56:06;8.80;65.20
10245;DHT22;5167;52.164;10.530;2022-11-15T07:58:32;8.80;65.10
10245;DHT22;5167;52.164;10.530;2022-11-15T08:00:58;8.80;64.90
10245;DHT22;5167;52.164;10.530;2022-11-15T08:03:23;8.90;64.90
10245;DHT22;5167;52.164;10.530;2022-11-15T08:05:52;8.90;65.00
10245;DHT22;5167;52.164;10.530;2022-11-15T08:08:18;9.00;65.30
10245;DHT22;5167;52.164;10.530;2022-11-15T08:10:44;9.10;65.70
10245;DHT22;5167;52.164;10.530;2022-11-15T08:13:11;9.20;65.80
10245;DHT22;5167;52.164;10.530;2022-11-15T08:15:37;9.20;66.20
10245;DHT22;5167;52.164;10.530;2022-11-15T08:18:05;9.30;65.50
10245;DHT22;5167;52.164;10.530;2022-11-15T08:20:31;9.40;67.30
10245;DHT22;5167;52.164;10.530;2022-11-15T08:22:58;9.50;67.60
10245;DHT22;5167;52.164;10.530;2022-11-15T08:25:26;9.70;67.20
10245;DHT22;5167;52.164;10.530;2022-11-15T08:27:56;9.70;66.20
10245;DHT22;5167;52.164;10.530;2022-11-15T08:30:23;9.80;64.90
10245;DHT22;5167;52.164;10.530;2022-11-15T08:32:50;9.90;62.70
10245;DHT22;5167;52.164;10.530;2022-11-15T08:35:15;9.90;61.90
10245;DHT22;5167;52.164;10.530;2022-11-15T08:37:41;10.00;61.30
10245;DHT22;5167;52.164;10.530;2022-11-15T08:40:07;10.00;60.50
10245;DHT22;5167;52.164;10.530;2022-11-15T08:42:33;10.00;60.00
10245;DHT22;5167;52.164;10.530;2022-11-15T08:44:59;10.10;58.60
10245;DHT22;5167;52.164;10.530;2022-11-15T08:47:25;10.10;58.30
10245;DHT22;5167;52.164;10.530;2022-11-15T08:49:50;10.20;57.80
10245;DHT22;5167;52.164;10.530;2022-11-15T08:52:16;10.10;57.80
10245;DHT22;5167;52.164;10.530;2022-11-15T08:54:41;10.20;57.20
10245;DHT22;5167;52.164;10.530;2022-11-15T08:57:07;10.20;56.70
10245;DHT22;5167;52.164;10.530;2022-11-15T08:59:35;10.30;56.90
10245;DHT22;5167;52.164;10.530;2022-11-15T09:02:01;10.30;57.50
10245;DHT22;5167;52.164;10.530;2022-11-15T09:04:26;10.30;57.80
10245;DHT22;5167;52.164;10.530;2022-11-15T09:06:52;10.20;57.80
10245;DHT22;5167;52.164;10.530;2022-11-15T09:09:17;10.30;58.40
10245;DHT22;5167;52.164;10.530;2022-11-15T09:11:43;10.30;58.60
10245;DHT22;5167;52.164;10.530;2022-11-15T09:14:11;10.30;58.90
10245;DHT22;5167;52.164;10.530;2022-11-15T09:16:36;10.40;59.30
10245;DHT22;5167;52.164;10.530;2022-11-15T09:19:02;10.40;59.10
10245;DHT22;5167;52.164;10.530;2022-11-15T09:21:29;10.50;59.40
10245;DHT22;5167;52.164;10.530;2022-11-15T09:23:55;10.50;59.50
10245;DHT22;5167;52.164;10.530;2022-11-15T09:26:20;10.60;60.00
10245;DHT22;5167;52.164;10.530;2022-11-15T09:28:46;10.60;60.00
10245;DHT22;5167;52.164;10.530;2022-11-15T09:31:12;10.60;60.10
10245;DHT22;5167;52.164;10.530;2022-11-15T09:33:37;10.60;60.30
10245;DHT22;5167;52.164;10.530;2022-11-15T09:36:07;10.70;59.70
10245;DHT22;5167;52.164;10.530;2022-11-15T09:38:34;10.70;59.50
10245;DHT22;5167;52.164;10.530;2022-11-15T09:44:16;10.80;61.70
10245;DHT22;5167;52.164;10.530;2022-11-15T09:49:55;11.20;65.50
10245;DHT22;5167;52.164;10.530;2022-11-15T09:52:22;11.40;66.60
10245;DHT22;5167;52.164;10.530;2022-11-15T09:54:49;11.60;66.40
10245;DHT22;5167;52.164;10.530;2022-11-15T10:02:43;12.20;62.70
10245;DHT22;5167;52.164;10.530;2022-11-15T10:05:16;12.30;61.90
10245;DHT22;5167;52.164;10.530;2022-11-15T10:10:51;12.50;58.60
10245;DHT22;5167;52.164;10.530;2022-11-15T10:13:24;12.60;56.40
10245;DHT22;5167;52.164;10.530;2022-11-15T10:15:59;12.70;55.50
10245;DHT22;5167;52.164;10.530;2022-11-15T10:18:57;12.80;53.80
10245;DHT22;5167;52.164;10.530;2022-11-15T10:21:37;12.90;52.80
10245;DHT22;5167;52.164;10.530;2022-11-15T10:24:11;12.80;52.20
10245;DHT22;5167;52.164;10.530;2022-11-15T10:26:38;13.00;52.60
10245;DHT22;5167;52.164;10.530;2022-11-15T10:29:03;13.00;52.50
10245;DHT22;5167;52.164;10.530;2022-11-15T10:31:29;13.10;51.90
10245;DHT22;5167;52.164;10.530;2022-11-15T10:34:12;13.10;51.80
10245;DHT22;5167;52.164;10.530;2022-11-15T10:36:38;13.20;51.40
10245;DHT22;5167;52.164;10.530;2022-11-15T10:39:12;13.30;51.00
10245;DHT22;5167;52.164;10.530;2022-11-15T10:41:39;13.20;51.30
10245;DHT22;5167;52.164;10.530;2022-11-15T10:50:26;13.40;51.30
10245;DHT22;5167;52.164;10.530;2022-11-15T10:52:52;13.50;50.10
10245;DHT22;5167;52.164;10.530;2022-11-15T10:55:28;13.60;50.00
10245;DHT22;5167;52.164;10.530;2022-11-15T10:58:19;13.70;50.00
10245;DHT22;5167;52.164;10.530;2022-11-15T11:00:46;13.80;51.20
10245;DHT22;5167;52.164;10.530;2022-11-15T11:03:34;13.80;50.60
10245;DHT22;5167;52.164;10.530;2022-11-15T11:06:15;14.00;49.80
10245;DHT22;5167;52.164;10.530;2022-11-15T11:09:03;14.10;49.30
10245;DHT22;5167;52.164;10.530;2022-11-15T11:11:47;14.10;48.30
10245;DHT22;5167;52.164;10.530;2022-11-15T11:14:21;14.30;47.90
10245;DHT22;5167;52.164;10.530;2022-11-15T11:16:52;14.40;47.40
10245;DHT22;5167;52.164;10.530;2022-11-15T11:19:46;14.50;46.90
10245;DHT22;5167;52.164;10.530;2022-11-15T11:27:42;14.70;46.10
10245;DHT22;5167;52.164;10.530;2022-11-15T11:30:19;14.70;45.80
10245;DHT22;5167;52.164;10.530;2022-11-15T11:33:30;14.80;45.90
10245;DHT22;5167;52.164;10.530;2022-11-15T11:36:16;14.70;45.50
10245;DHT22;5167;52.164;10.530;2022-11-15T11:41:43;14.70;45.80
10245;DHT22;5167;52.164;10.530;2022-11-15T11:44:24;14.80;46.10
10245;DHT22;5167;52.164;10.530;2022-11-15T11:49:35;14.80;46.50
10245;DHT22;5167;52.164;10.530;2022-11-15T12:00:15;14.90;46.20
10245;DHT22;5167;52.164;10.530;2022-11-15T12:05:35;14.90;46.30
10245;DHT22;5167;52.164;10.530;2022-11-15T12:08:31;14.90;46.60
10245;DHT22;5167;52.164;10.530;2022-11-15T12:13:38;15.00;46.20
10245;DHT22;5167;52.164;10.530;2022-11-15T12:16:14;15.00;46.20
10245;DHT22;5167;52.164;10.530;2022-11-15T12:18:47;15.00;45.90
10245;DHT22;5167;52.164;10.530;2022-11-15T12:23:48;15.00;46.60
10245;DHT22;5167;52.164;10.530;2022-11-15T12:26:20;15.00;45.30
10245;DHT22;5167;52.164;10.530;2022-11-15T12:28:55;15.10;45.00
10245;DHT22;5167;52.164;10.530;2022-11-15T12:31:39;15.00;44.90
10245;DHT22;5167;52.164;10.530;2022-11-15T12:34:35;15.10;44.90
10245;DHT22;5167;52.164;10.530;2022-11-15T12:37:02;15.10;44.70
10245;DHT22;5167;52.164;10.530;2022-11-15T12:44:58;15.10;43.30
10245;DHT22;5167;52.164;10.530;2022-11-15T12:47:27;15.20;42.90
10245;DHT22;5167;52.164;10.530;2022-11-15T12:49:52;15.10;43.40
10245;DHT22;5167;52.164;10.530;2022-11-15T12:52:18;15.10;42.50
10245;DHT22;5167;52.164;10.530;2022-11-15T12:54:56;15.10;42.90
10245;DHT22;5167;52.164;10.530;2022-11-15T12:57:37;15.10;43.70
10245;DHT22;5167;52.164;10.530;2022-11-15T13:02:43;15.30;43.40
10245;DHT22;5167;52.164;10.530;2022-11-15T13:10:32;15.20;43.20
10245;DHT22;5167;52.164;10.530;2022-11-15T13:13:02;15.20;43.30
10245;DHT22;5167;52.164;10.530;2022-11-15T13:15:56;15.20;42.50
10245;DHT22;5167;52.164;10.530;2022-11-15T13:20:52;15.20;42.60
10245;DHT22;5167;52.164;10.530;2022-11-15T13:23:17;15.20;42.70
10245;DHT22;5167;52.164;10.530;2022-11-15T13:31:13;15.20;42.70
10245;DHT22;5167;52.164;10.530;2022-11-15T13:33:41;15.20;42.20
10245;DHT22;5167;52.164;10.530;2022-11-15T13:36:16;15.20;41.20
10245;DHT22;5167;52.164;10.530;2022-11-15T13:38:43;15.20;42.30
10245;DHT22;5167;52.164;10.530;2022-11-15T13:41:20;15.10;42.80
10245;DHT22;5167;52.164;10.530;2022-11-15T13:43:48;15.10;42.50
10245;DHT22;5167;52.164;10.530;2022-11-15T13:46:17;15.20;42.20
10245;DHT22;5167;52.164;10.530;2022-11-15T13:48:46;15.10;42.30
10245;DHT22;5167;52.164;10.530;2022-11-15T13:53:53;15.20;42.20
10245;DHT22;5167;52.164;10.530;2022-11-15T13:56:20;15.20;41.80
10245;DHT22;5167;52.164;10.530;2022-11-15T13:58:46;15.10;41.60
10245;DHT22;5167;52.164;10.530;2022-11-15T14:01:19;15.10;41.60
10245;DHT22;5167;52.164;10.530;2022-11-15T14:03:58;15.10;41.10
10245;DHT22;5167;52.164;10.530;2022-11-15T14:06:28;15.10;41.70
10245;DHT22;5167;52.164;10.530;2022-11-15T14:11:34;15.10;41.80
10245;DHT22;5167;52.164;10.530;2022-11-15T14:16:37;15.00;41.20
10245;DHT22;5167;52.164;10.530;2022-11-15T14:19:04;15.00;41.40
10245;DHT22;5167;52.164;10.530;2022-11-15T14:21:31;15.00;41.40
10245;DHT22;5167;52.164;10.530;2022-11-15T14:24:20;15.00;41.40
10245;DHT22;5167;52.164;10.530;2022-11-15T14:26:46;15.00;41.30
10245;DHT22;5167;52.164;10.530;2022-11-15T14:29:29;14.90;41.20
10245;DHT22;5167;52.164;10.530;2022-11-15T14:32:22;15.00;41.10
10245;DHT22;5167;52.164;10.530;2022-11-15T14:34:59;14.90;41.50
10245;DHT22;5167;52.164;10.530;2022-11-15T14:37:25;14.90;41.30
10245;DHT22;5167;52.164;10.530;2022-11-15T14:39:52;14.90;41.70
10245;DHT22;5167;52.164;10.530;2022-11-15T14:42:18;14.90;41.90
10245;DHT22;5167;52.164;10.530;2022-11-15T14:44:44;14.90;41.80
10245;DHT22;5167;52.164;10.530;2022-11-15T14:47:10;14.90;41.80
10245;DHT22;5167;52.164;10.530;2022-11-15T14:49:35;14.90;41.90
10245;DHT22;5167;52.164;10.530;2022-11-15T14:52:01;14.90;42.30
10245;DHT22;5167;52.164;10.530;2022-11-15T14:54:26;14.80;42.20
10245;DHT22;5167;52.164;10.530;2022-11-15T14:56:52;14.80;42.40
10245;DHT22;5167;52.164;10.530;2022-11-15T14:59:17;14.80;42.30
10245;DHT22;5167;52.164;10.530;2022-11-15T15:01:43;14.70;42.30
10245;DHT22;5167;52.164;10.530;2022-11-15T15:04:10;14.70;42.50
10245;DHT22;5167;52.164;10.530;2022-11-15T15:06:36;14.70;42.60
10245;DHT22;5167;52.164;10.530;2022-11-15T15:09:01;14.70;42.60
10245;DHT22;5167;52.164;10.530;2022-11-15T15:11:30;14.70;42.90
10245;DHT22;5167;52.164;10.530;2022-11-15T15:13:56;14.70;42.70
10245;DHT22;5167;52.164;10.530;2022-11-15T15:16:24;14.70;42.60
10245;DHT22;5167;52.164;10.530;2022-11-15T15:18:50;14.70;42.50
10245;DHT22;5167;52.164;10.530;2022-11-15T15:21:22;14.70;42.90
10245;DHT22;5167;52.164;10.530;2022-11-15T15:23:49;14.70;42.50
10245;DHT22;5167;52.164;10.530;2022-11-15T15:26:15;14.70;42.60
10245;DHT22;5167;52.164;10.530;2022-11-15T15:28:41;14.70;42.50
10245;DHT22;5167;52.164;10.530;2022-11-15T15:31:07;14.60;42.20
10245;DHT22;5167;52.164;10.530;2022-11-15T15:33:33;14.60;42.60
10245;DHT22;5167;52.164;10.530;2022-11-15T15:35:58;14.60;42.60
10245;DHT22;5167;52.164;10.530;2022-11-15T15:38:24;14.60;41.80
10245;DHT22;5167;52.164;10.530;2022-11-15T15:40:50;14.60;42.30
10245;DHT22;5167;52.164;10.530;2022-11-15T15:43:15;14.50;42.00
10245;DHT22;5167;52.164;10.530;2022-11-15T15:45:41;14.50;42.40
10245;DHT22;5167;52.164;10.530;2022-11-15T15:48:12;14.40;42.10
10245;DHT22;5167;52.164;10.530;2022-11-15T15:50:38;14.40;42.20
10245;DHT22;5167;52.164;10.530;2022-11-15T15:53:04;14.40;42.30
10245;DHT22;5167;52.164;10.530;2022-11-15T15:55:30;14.40;42.10
10245;DHT22;5167;52.164;10.530;2022-11-15T15:57:55;14.30;42.40
10245;DHT22;5167;52.164;10.530;2022-11-15T16:00:22;14.30;42.30
10245;DHT22;5167;52.164;10.530;2022-11-15T16:02:49;14.30;42.70
10245;DHT22;5167;52.164;10.530;2022-11-15T16:05:14;14.20;42.70
10245;DHT22;5167;52.164;10.530;2022-11-15T16:07:40;14.20;42.40
10245;DHT22;5167;52.164;10.530;2022-11-15T16:10:25;14.20;42.50
10245;DHT22;5167;52.164;10.530;2022-11-15T16:12:52;14.20;42.30
10245;DHT22;5167;52.164;10.530;2022-11-15T16:15:19;14.20;42.70
10245;DHT22;5167;52.164;10.530;2022-11-15T16:17:56;14.20;42.80
10245;DHT22;5167;52.164;10.530;2022-11-15T16:20:38;14.20;43.00
10245;DHT22;5167;52.164;10.530;2022-11-15T16:23:06;14.20;43.00
10245;DHT22;5167;52.164;10.530;2022-11-15T16:25:47;14.20;42.60
10245;DHT22;5167;52.164;10.530;2022-11-15T16:28:27;14.20;42.60
10245;DHT22;5167;52.164;10.530;2022-11-15T16:31:19;14.20;42.50
10245;DHT22;5167;52.164;10.530;2022-11-15T16:33:47;14.10;42.60
10245;DHT22;5167;52.164;10.530;2022-11-15T16:36:24;14.10;42.50
10245;DHT22;5167;52.164;10.530;2022-11-15T16:38:51;14.10;42.70
10245;DHT22;5167;52.164;10.530;2022-11-15T16:41:17;14.10;42.60
10245;DHT22;5167;52.164;10.530;2022-11-15T16:43:45;14.00;42.50
10245;DHT22;5167;52.164;10.530;2022-11-15T16:46:17;13.90;43.10
10245;DHT22;5167;52.164;10.530;2022-11-15T16:48:43;14.00;42.80
10245;DHT22;5167;52.164;10.530;2022-11-15T16:51:09;13.90;43.20
10245;DHT22;5167;52.164;10.530;2022-11-15T16:53:35;13.90;43.70
10245;DHT22;5167;52.164;10.530;2022-11-15T16:56:01;13.90;43.40
10245;DHT22;5167;52.164;10.530;2022-11-15T16:58:27;13.90;43.80
10245;DHT22;5167;52.164;10.530;2022-11-15T17:00:54;13.90;43.80
10245;DHT22;5167;52.164;10.530;2022-11-15T17:03:21;13.90;43.70
10245;DHT22;5167;52.164;10.530;2022-11-15T17:05:47;13.90;43.30
10245;DHT22;5167;52.164;10.530;2022-11-15T17:08:12;13.90;43.40
10245;DHT22;5167;52.164;10.530;2022-11-15T17:10:39;13.80;43.50
10245;DHT22;5167;52.164;10.530;2022-11-15T17:13:11;13.80;43.50
10245;DHT22;5167;52.164;10.530;2022-11-15T17:15:38;13.80;43.60
10245;DHT22;5167;52.164;10.530;2022-11-15T17:18:04;13.80;43.40
10245;DHT22;5167;52.164;10.530;2022-11-15T17:20:30;13.80;43.70
10245;DHT22;5167;52.164;10.530;2022-11-15T17:22:56;13.90;43.50
10245;DHT22;5167;52.164;10.530;2022-11-15T17:25:21;13.80;43.60
10245;DHT22;5167;52.164;10.530;2022-11-15T17:27:47;13.90;44.30
10245;DHT22;5167;52.164;10.530;2022-11-15T17:30:14;13.80;44.00
10245;DHT22;5167;52.164;10.530;2022-11-15T17:32:40;13.90;43.90
10245;DHT22;5167;52.164;10.530;2022-11-15T17:35:07;13.90;44.30
10245;DHT22;5167;52.164;10.530;2022-11-15T17:37:33;13.70;44.30